Data for 08/29/2010

Time Sea-Level Adjusted Pressure Absolute Pressure Temperature Relative Humidity Dew Point   
(mb) (inHg) (mb) (inHg) (C) (F) (%) (C) (F)
00:05 1009 29.8 839 24.78 8.9 47.9 97 8.4 47.1
00:10 1009 29.8 839 24.78 8.9 48 97 8.4 47.2
00:15 1009 29.8 839 24.78 8.9 48 97 8.5 47.3
00:20 1010 29.83 839 24.78 9 48.1 97 8.5 47.4
00:25 1010 29.83 839 24.78 9 48.1 97 8.6 47.4
00:30 1009 29.8 839 24.78 9 48.3 97 8.6 47.5
00:35 1009 29.8 838 24.75 9.1 48.5 97 8.7 47.7
00:40 1009 29.8 838 24.75 9.3 48.7 97 8.8 47.9
00:45 1009 29.8 838 24.75 9.4 48.9 97 8.9 48
00:50 1009 29.8 838 24.75 9.5 49.1 96 8.9 48.1
00:55 1008 29.77 838 24.75 9.8 49.6 92 8.5 47.4
01:00 1008 29.77 838 24.75 10 50.1 91 8.6 47.6
01:05 1009 29.8 838 24.75 10 50.1 90 8.5 47.3
01:10 1009 29.8 838 24.75 10.1 50.3 89 8.4 47.1
01:15 1009 29.8 838 24.75 10.1 50.2 88 8.3 47
01:20 1009 29.8 838 24.75 10.1 50.2 88 8.2 46.8
01:25 1009 29.8 838 24.75 10 50.1 88 8.2 46.7
01:30 1009 29.8 838 24.75 10.1 50.2 87 8.1 46.6
01:35 1009 29.8 838 24.75 10.2 50.3 86 7.9 46.3
01:40 1009 29.8 838 24.75 10.3 50.5 85 8 46.3
01:45 1009 29.8 838 24.75 10.3 50.5 86 7.9 46.3
01:50 1009 29.8 838 24.75 10.2 50.4 86 7.9 46.3
01:55 1009 29.8 838 24.75 10.2 50.4 86 7.9 46.3
02:00 1008 29.77 838 24.75 10.2 50.3 86 7.9 46.2
02:05 1008 29.77 838 24.75 10.1 50.2 86 7.9 46.2
02:10 1008 29.77 837 24.72 10.2 50.4 85 7.8 46
02:15 1008 29.77 837 24.72 10.1 50.2 86 7.9 46.2
02:20 1008 29.77 837 24.72 10 50.1 87 7.9 46.3
02:25 1008 29.77 837 24.72 10 50 86 7.8 46.1
02:30 1008 29.77 838 24.75 10 50 87 7.9 46.2
02:35 1008 29.77 838 24.75 9.9 49.9 87 7.9 46.2
02:40 1008 29.77 838 24.75 9.9 49.8 87 7.8 46.1
02:45 1008 29.77 838 24.75 9.9 49.8 86 7.8 46
02:50 1008 29.77 838 24.75 10 50 86 7.9 46.1
02:55 1008 29.77 838 24.75 10.1 50.1 86 7.9 46.1
03:00 1008 29.77 838 24.75 10.1 50.2 86 7.8 46.1
03:05 1008 29.77 838 24.75 10.1 50.2 86 7.8 46.1
03:10 1008 29.77 838 24.75 10.2 50.4 85 7.8 46.1
03:15 1008 29.77 838 24.75 10.2 50.4 84 7.7 45.9
03:20 1008 29.77 838 24.75 10.3 50.6 84 7.8 46
03:25 1008 29.77 838 24.75 10.3 50.5 84 7.7 45.9
03:30 1008 29.77 838 24.75 10.2 50.3 85 7.8 46.1
03:35 1008 29.77 838 24.75 10 50 85 7.6 45.7
03:40 1009 29.8 838 24.75 9.9 49.9 90 8.3 46.9
03:45 1009 29.8 838 24.75 9.5 49 92 8.2 46.7
03:50 1009 29.8 838 24.75 9.3 48.7 93 8.2 46.7
03:55 1009 29.8 838 24.75 9.1 48.4 94 8.2 46.7
04:00 1009 29.8 838 24.75 9.1 48.3 94 8.1 46.6
04:05 1009 29.8 838 24.75 8.9 48 95 8.1 46.5
04:10 1009 29.8 838 24.75 8.8 47.8 95 8.1 46.5
04:15 1009 29.8 838 24.75 8.7 47.7 95 8 46.3
04:20 1009 29.8 838 24.75 8.6 47.4 95 7.8 46.1
04:25 1009 29.8 838 24.75 8.6 47.6 96 8 46.4
04:30 1009 29.8 838 24.75 8.7 47.7 96 8 46.4
04:35 1009 29.8 838 24.75 8.7 47.7 96 8 46.5
04:40 1009 29.8 838 24.75 8.7 47.7 96 8.1 46.5
04:45 1009 29.8 838 24.75 8.7 47.7 96 8.1 46.5
04:50 1009 29.8 838 24.75 8.7 47.6 96 8 46.5
04:55 1009 29.8 838 24.75 8.7 47.6 96 8.1 46.5
05:00 1009 29.8 838 24.75 8.6 47.6 96 8.1 46.5
05:05 1009 29.8 838 24.75 8.7 47.6 96 8.1 46.6
05:10 1009 29.8 838 24.75 8.7 47.6 96 8.1 46.6
05:15 1009 29.8 838 24.75 8.6 47.5 96 8.1 46.6
05:20 1009 29.8 838 24.75 8.6 47.4 96 8 46.4
05:25 1009 29.8 838 24.75 8.5 47.3 97 8 46.4
05:30 1009 29.8 838 24.75 8.5 47.2 97 8 46.3
05:35 1009 29.8 838 24.75 8.5 47.3 97 8 46.4
05:40 1009 29.8 838 24.75 8.6 47.4 97 8.1 46.6
05:45 1009 29.8 838 24.75 8.6 47.5 97 8.1 46.6
05:50 1009 29.8 838 24.75 8.6 47.5 97 8.2 46.7
05:55 1009 29.8 838 24.75 8.5 47.4 97 8.1 46.6
06:00 1009 29.8 838 24.75 8.5 47.3 97 8 46.5
06:05 1009 29.8 838 24.75 8.5 47.2 97 8 46.4
06:10 1009 29.8 838 24.75 8.4 47.2 97 8 46.4
06:15 1009 29.8 838 24.75 8.4 47.1 97 8 46.3
06:20 1009 29.8 838 24.75 8.4 47 97 7.9 46.3
06:25 1009 29.8 838 24.75 8.3 46.9 97 7.9 46.1
06:30 1009 29.8 838 24.75 8.1 46.6 97 7.7 45.9
06:35 1009 29.8 838 24.75 8.1 46.5 97 7.6 45.7
06:40 1009 29.8 838 24.75 8 46.5 97 7.6 45.7
06:45 1009 29.8 838 24.75 8 46.5 97 7.6 45.7
06:50 1009 29.8 838 24.75 8.1 46.6 97 7.7 45.9
06:55 1009 29.8 838 24.75 8.1 46.6 97 7.7 45.9
07:00 1009 29.8 839 24.78 8.2 46.7 97 7.7 45.9
07:05 1009 29.8 839 24.78 8.3 46.9 97 7.8 46.1
07:10 1009 29.8 839 24.78 8.3 46.9 97 7.9 46.2
07:15 1009 29.8 839 24.78 8.3 47 97 7.9 46.2
07:20 1009 29.8 839 24.78 8.4 47.2 97 8 46.4
07:25 1009 29.8 839 24.78 8.5 47.3 97 8.1 46.5
07:30 1010 29.83 839 24.78 8.6 47.5 97 8.2 46.7
07:35 1010 29.83 839 24.78 8.8 47.8 97 8.4 47
07:40 1010 29.83 839 24.78 8.9 48 97 8.5 47.2
07:45 1010 29.83 839 24.78 8.9 48 97 8.4 47.2
07:50 1010 29.83 839 24.78 8.7 47.7 96 8.2 46.7
07:55 1010 29.83 839 24.78 8.7 47.6 96 8.1 46.5
08:00 1010 29.83 839 24.78 8.8 47.8 96 8.1 46.6
08:05 1010 29.83 839 24.78 8.9 48.1 96 8.2 46.8
08:10 1010 29.83 839 24.78 9.1 48.3 95 8.3 47
08:15 1010 29.83 839 24.78 9.2 48.5 94 8.3 47
08:20 1010 29.83 839 24.78 9.2 48.5 94 8.3 47
08:25 1010 29.83 839 24.78 9.2 48.6 94 8.3 47
08:30 1010 29.83 839 24.78 9.3 48.8 93 8.3 46.9
08:35 1010 29.83 839 24.78 9.3 48.8 93 8.2 46.8
08:40 1010 29.83 839 24.78 9.4 48.9 93 8.3 47
08:45 1010 29.83 839 24.78 9.7 49.4 91 8.3 46.9
08:50 1010 29.83 839 24.78 9.6 49.3 90 8.1 46.6
08:55 1010 29.83 839 24.78 9.5 49 90 7.9 46.3
09:00 1010 29.83 839 24.78 9.4 48.9 90 7.9 46.2
09:05 1010 29.83 839 24.78 9.6 49.2 92 8.3 46.9
09:10 1010 29.83 839 24.78 9.8 49.6 90 8.3 46.9
09:15 1010 29.83 839 24.78 10 50 87 8 46.4
09:20 1010 29.83 839 24.78 9.9 49.8 89 8.2 46.7
09:25 1010 29.83 839 24.78 10.1 50.1 89 8.3 46.9
09:30 1010 29.83 839 24.78 10.2 50.3 88 8.3 46.9
09:35 1010 29.83 839 24.78 10.4 50.8 88 8.5 47.2
09:40 1010 29.83 839 24.78 10.5 50.8 86 8.2 46.8
09:45 1010 29.83 839 24.78 10.3 50.5 87 8.2 46.8
09:50 1010 29.83 839 24.78 10.5 50.9 87 8.3 47
09:55 1010 29.83 839 24.78 10.7 51.3 86 8.4 47.2
10:00 1010 29.83 839 24.78 10.8 51.5 84 8.3 47
10:05 1010 29.83 839 24.78 10.9 51.5 85 8.4 47.2
10:10 1010 29.83 839 24.78 11 51.9 83 8.4 47
10:15 1010 29.83 839 24.78 11.2 52.2 82 8.4 47
10:20 1010 29.83 839 24.78 11.2 52.2 83 8.4 47.1
10:25 1010 29.83 839 24.78 10.9 51.5 85 8.5 47.2
10:30 1010 29.83 839 24.78 11 51.8 84 8.4 47
10:35 1010 29.83 839 24.78 11.3 52.3 85 8.8 47.8
10:40 1010 29.83 840 24.81 11.2 52.2 85 8.8 47.9
10:45 1010 29.83 840 24.81 11.4 52.5 83 8.6 47.6
10:50 1010 29.83 839 24.78 11.1 52.1 83 8.4 47.1
10:55 1010 29.83 839 24.78 11.3 52.3 82 8.3 47
11:00 1010 29.83 839 24.78 11.3 52.4 83 8.6 47.5
11:05 1010 29.83 840 24.81 11.3 52.3 83 8.5 47.3
11:10 1010 29.83 840 24.81 11.4 52.5 81 8.3 46.9
11:15 1010 29.83 840 24.81 11.4 52.6 80 8.2 46.7
11:20 1010 29.83 840 24.81 11.6 52.9 80 8.2 46.8
11:25 1011 29.85 840 24.81 11.8 53.2 77 8 46.4
11:30 1011 29.85 840 24.81 11.8 53.3 77 8 46.4
11:35 1011 29.85 840 24.81 12 53.6 74 7.5 45.5
11:40 1011 29.85 840 24.81 12.1 53.8 72 7.3 45.2
11:45 1011 29.85 840 24.81 12.4 54.3 71 7.3 45.1
11:50 1011 29.85 840 24.81 12.5 54.6 71 7.4 45.4
11:55 1011 29.85 840 24.81 13 55.3 69 7.5 45.5
12:00 1011 29.85 840 24.81 13.4 56 66 7.2 44.9
12:05 1010 29.83 840 24.81 13.5 56.4 67 7.7 45.8
12:10 1010 29.83 840 24.81 13.4 56.1 67 7.5 45.6
12:15 1010 29.83 840 24.81 13.3 56 66 7.2 45
12:20 1010 29.83 840 24.81 13.4 56.1 66 7.2 44.9
12:25 1010 29.83 840 24.81 13.3 55.9 69 7.7 45.8
12:30 1010 29.83 839 24.78 13.4 56.2 66 7.4 45.3
12:35 1010 29.83 839 24.78 13.8 56.8 64 7 44.6
12:40 1010 29.83 839 24.78 13.5 56.3 65 7 44.7
12:45 1010 29.83 839 24.78 13.4 56.1 65 7.1 44.7
12:50 1010 29.83 839 24.78 14.2 57.5 61 6.7 44
12:55 1010 29.83 839 24.78 14.6 58.2 62 7.5 45.4
13:00 1010 29.83 839 24.78 14.8 58.6 59 6.8 44.3
13:05 1010 29.83 839 24.78 15.2 59.3 62 8 46.4
13:10 1010 29.83 839 24.78 14.5 58 61 7.1 44.7
13:15 1010 29.83 839 24.78 15.2 59.4 59 7.3 45.1
13:20 1010 29.83 839 24.78 16 60.8 58 7.8 46
13:25 1010 29.83 839 24.78 16.1 60.9 58 7.8 46
13:30 1010 29.83 839 24.78 16.5 61.6 56 7.7 45.8
13:35 1010 29.83 839 24.78 16.8 62.3 54 7.5 45.4
13:40 1010 29.83 839 24.78 16.2 61.1 58 8 46.4
13:45 1010 29.83 839 24.78 16.5 61.6 54 7.2 45
13:50 1010 29.83 839 24.78 16.8 62.2 55 7.7 45.9
13:55 1010 29.83 839 24.78 17.6 63.6 52 7.8 46.1
14:00 1010 29.83 839 24.78 17.5 63.4 53 7.9 46.3
14:05 1010 29.83 839 24.78 16.6 62 56 7.9 46.2
14:10 1010 29.83 839 24.78 16.3 61.3 56 7.6 45.7
14:15 1010 29.83 839 24.78 16.8 62.3 53 7.2 45
14:20 1010 29.83 839 24.78 17 62.5 56 8.1 46.7
14:25 1010 29.83 839 24.78 16.7 62.1 55 7.8 46.1
14:30 1010 29.83 839 24.78 16.8 62.2 57 8.2 46.8
14:35 1010 29.83 839 24.78 15.9 60.7 61 8.5 47.3
14:40 1009 29.8 839 24.78 15.3 59.5 61 7.8 46.1
14:45 1009 29.8 839 24.78 15.7 60.2 59 7.7 45.8
14:50 1009 29.8 839 24.78 16.2 61.2 57 7.9 46.1
14:55 1009 29.8 839 24.78 15.9 60.7 59 7.9 46.2
15:00 1009 29.8 839 24.78 15.5 59.9 61 8.1 46.5
15:05 1009 29.8 839 24.78 15.3 59.5 62 8.1 46.6
15:10 1009 29.8 838 24.75 15.4 59.7 60 7.7 45.8
15:15 1009 29.8 838 24.75 15.6 60.1 61 8.1 46.6
15:20 1009 29.8 838 24.75 15.9 60.6 59 7.9 46.2
15:25 1009 29.8 838 24.75 16.2 61.2 61 8.8 47.9
15:30 1009 29.8 838 24.75 16.4 61.6 58 8.3 47
15:35 1009 29.8 838 24.75 15.8 60.4 59 7.9 46.1
15:40 1009 29.8 839 24.78 15.7 60.3 61 8.4 47.1
15:45 1009 29.8 838 24.75 16.1 61.1 57 7.6 45.7
15:50 1009 29.8 838 24.75 17 62.5 54 7.7 45.9
15:55 1009 29.8 838 24.75 17.2 63 57 8.7 47.6
16:00 1009 29.8 839 24.78 16.1 61 59 8.1 46.6
16:05 1009 29.8 839 24.78 16.6 61.9 57 8.2 46.8
16:10 1009 29.8 839 24.78 17 62.7 57 8.5 47.3
16:15 1009 29.8 839 24.78 16.7 62.1 57 8.3 47
16:20 1009 29.8 839 24.78 16.5 61.7 59 8.5 47.3
16:25 1010 29.83 839 24.78 16.1 60.9 63 9.1 48.5
16:30 1010 29.83 839 24.78 15.6 60.1 67 9.6 49.4
16:35 1010 29.83 839 24.78 15.5 59.8 67 9.5 49.1
16:40 1010 29.83 839 24.78 15.4 59.7 68 9.6 49.3
16:45 1010 29.83 839 24.78 15 58.9 68 9.2 48.6
16:50 1010 29.83 839 24.78 14.9 58.9 66 8.6 47.6
16:55 1010 29.83 839 24.78 15 58.9 67 8.8 47.9
17:00 1010 29.83 839 24.78 14.6 58.3 67 8.6 47.4
17:05 1010 29.83 839 24.78 14.2 57.5 64 7.6 45.7
17:10 1010 29.83 839 24.78 14.2 57.5 64 7.5 45.5
17:15 1010 29.83 839 24.78 14.6 58.4 60 7.1 44.7
17:20 1010 29.83 839 24.78 14.7 58.4 61 7.3 45.1
17:25 1010 29.83 840 24.81 14.4 57.9 60 6.8 44.2
17:30 1011 29.85 840 24.81 14.1 57.4 63 7.3 45.1
17:35 1011 29.85 840 24.81 13.8 56.9 62 6.7 44.1
17:40 1011 29.85 840 24.81 13.6 56.5 64 6.9 44.4
17:45 1011 29.85 840 24.81 13.6 56.5 63 6.8 44.2
17:50 1011 29.85 840 24.81 13.7 56.6 63 6.8 44.3
17:55 1011 29.85 840 24.81 13.8 56.8 63 6.8 44.3
18:00 1011 29.85 840 24.81 14 57.2 61 6.7 44
18:05 1011 29.85 840 24.81 14.1 57.3 60 6.5 43.6
18:10 1011 29.85 840 24.81 13.8 56.8 63 6.8 44.3
18:15 1011 29.85 841 24.83 13.5 56.3 65 7.1 44.7
18:20 1011 29.85 840 24.81 13.3 56 69 7.8 46
18:25 1011 29.85 841 24.83 13 55.4 70 7.7 45.8
18:30 1012 29.88 841 24.83 12.4 54.4 74 7.9 46.2
18:35 1012 29.88 841 24.83 12 53.7 75 7.8 46
18:40 1012 29.88 841 24.83 11.8 53.2 77 8 46.3
18:45 1012 29.88 841 24.83 11.5 52.6 80 8.1 46.6
18:50 1012 29.88 841 24.83 11.3 52.3 79 7.8 46
18:55 1012 29.88 841 24.83 11.1 52 80 7.9 46.2
19:00 1012 29.88 841 24.83 11 51.8 80 7.8 46
19:05 1012 29.88 841 24.83 11.1 51.9 81 7.9 46.2
19:10 1012 29.88 841 24.83 11.4 52.5 80 8.1 46.6
19:15 1012 29.88 841 24.83 11.6 52.8 77 7.7 45.8
19:20 1012 29.88 841 24.83 11.1 52 78 7.5 45.4
19:25 1012 29.88 841 24.83 11 51.7 81 7.8 46.1
19:30 1012 29.88 841 24.83 10.7 51.3 81 7.6 45.6
19:35 1012 29.88 841 24.83 10.3 50.5 82 7.3 45.2
19:40 1012 29.88 841 24.83 10.2 50.4 83 7.5 45.5
19:45 1012 29.88 841 24.83 10.1 50.2 83 7.4 45.3
19:50 1012 29.88 841 24.83 10.1 50.2 83 7.3 45.1
19:55 1012 29.88 841 24.83 10.1 50.1 82 7.1 44.7
20:00 1012 29.88 842 24.86 10 50 81 7 44.5
20:05 1012 29.88 842 24.86 10 50.1 81 7 44.6
20:10 1013 29.91 842 24.86 9.9 49.9 80 6.7 44.1
20:15 1013 29.91 842 24.86 9.8 49.6 82 6.8 44.2
20:20 1013 29.91 842 24.86 9.9 49.7 81 6.8 44.2
20:25 1013 29.91 842 24.86 9.9 49.8 82 7 44.5
20:30 1013 29.91 842 24.86 9.9 49.9 81 6.8 44.3
20:35 1013 29.91 842 24.86 10 49.9 82 7 44.6
20:40 1013 29.91 842 24.86 9.9 49.8 81 6.8 44.2
20:45 1013 29.91 842 24.86 9.9 49.8 81 6.9 44.4
20:50 1013 29.91 842 24.86 9.8 49.7 81 6.8 44.2
20:55 1013 29.91 842 24.86 9.9 49.8 80 6.5 43.7
21:00 1013 29.91 842 24.86 9.8 49.7 81 6.8 44.2
21:05 1013 29.91 842 24.86 9.8 49.6 81 6.7 44.1
21:10 1013 29.91 842 24.86 9.8 49.6 81 6.6 43.9
21:15 1013 29.91 842 24.86 9.6 49.3 82 6.7 44
21:20 1014 29.94 843 24.89 9.4 48.9 83 6.6 43.8
21:25 1014 29.94 843 24.89 9.3 48.8 83 6.6 43.9
21:30 1014 29.94 843 24.89 9.2 48.5 84 6.6 43.9
21:35 1014 29.94 843 24.89 9.1 48.4 84 6.6 43.9
21:40 1014 29.94 843 24.89 9.1 48.4 85 6.7 44.1
21:45 1014 29.94 843 24.89 9.1 48.4 86 6.9 44.5
21:50 1014 29.94 843 24.89 9 48.2 84 6.4 43.5
21:55 1014 29.94 843 24.89 8.9 48.1 84 6.5 43.6
22:00 1014 29.94 843 24.89 9 48.1 85 6.5 43.7
22:05 1013 29.91 843 24.89 8.9 48.1 86 6.7 44.1
22:10 1014 29.94 843 24.89 8.8 47.9 86 6.7 44
22:15 1014 29.94 843 24.89 8.8 47.9 86 6.7 44.1
22:20 1014 29.94 843 24.89 8.8 47.8 87 6.7 44.1
22:25 1014 29.94 843 24.89 8.6 47.4 87 6.5 43.8
22:30 1014 29.94 843 24.89 8.5 47.3 89 6.8 44.2
22:35 1014 29.94 843 24.89 8.4 47.2 89 6.8 44.2
22:40 1014 29.94 843 24.89 8.4 47 90 6.8 44.3
22:45 1014 29.94 843 24.89 8.1 46.7 90 6.6 43.9
22:50 1014 29.94 843 24.89 7.8 46 91 6.4 43.6
22:55 1014 29.94 843 24.89 7.6 45.6 92 6.3 43.4
23:00 1014 29.94 843 24.89 7.5 45.5 92 6.2 43.2
23:05 1014 29.94 843 24.89 7.6 45.6 92 6.3 43.4
23:10 1014 29.94 843 24.89 7.6 45.7 91 6.2 43.2
23:15 1014 29.94 843 24.89 7.6 45.6 91 6.1 43.1
23:20 1014 29.94 843 24.89 7.6 45.6 90 6.1 43
23:25 1014 29.94 843 24.89 7.6 45.7 90 6.1 43
23:30 1014 29.94 843 24.89 7.7 45.9 91 6.4 43.5
23:35 1014 29.94 843 24.89 7.7 45.9 91 6.3 43.4
23:40 1014 29.94 843 24.89 7.5 45.4 92 6.3 43.4
23:45 1014 29.94 843 24.89 7.4 45.3 93 6.3 43.4
23:50 1014 29.94 843 24.89 7.5 45.6 92 6.4 43.5
23:55 1014 29.94 843 24.89 7.6 45.8 92 6.4 43.4
24:00 1014 29.94 843 24.89 7.6 45.7 92 6.4 43.5